Time;durP1;ratioP1;P1;durP2;ratioP2;P2;SDS_P1;SDS_P2;PMS_P1;PMS_P2;Temp;Humidity;BMP_temperature;BMP_pressure;BME280_temperature;BME280_humidity;BME280_pressure;Samples;Min_cycle;Max_cycle;Signal;HPM_P1;HPM_P2
2022/06/17 00:01:40;;;;;;;7.68;4.07;;;;;;;17.01;75.87;96835.94;5048832;28;20700;-70
2022/06/17 00:04:07;;;;;;;8.23;4.47;;;;;;;16.83;76.61;96849.00;5047869;28;20212;-68
2022/06/17 00:06:39;;;;;;;12.00;3.97;;;;;;;17.16;75.24;96852.56;5048831;28;20213;-70
2022/06/17 00:09:07;;;;;;;6.15;3.53;;;;;;;17.01;75.26;96848.44;5053826;28;20236;-67
2022/06/17 00:11:36;;;;;;;6.13;4.05;;;;;;;17.03;75.40;96857.03;5054231;28;20263;-67
2022/06/17 00:14:03;;;;;;;6.60;3.40;;;;;;;16.73;76.01;96858.38;5051665;28;20209;-68
2022/06/17 00:16:30;;;;;;;6.85;4.20;;;;;;;16.87;75.11;96860.06;5047854;28;20205;-68
2022/06/17 00:18:58;;;;;;;5.50;4.05;;;;;;;16.87;75.35;96860.06;5048617;28;20201;-70
2022/06/17 00:21:27;;;;;;;6.45;3.88;;;;;;;16.52;76.97;96863.81;5051543;28;20216;-69
2022/06/17 00:23:54;;;;;;;5.05;3.75;;;;;;;16.51;75.99;96864.84;5053843;28;20201;-69
2022/06/17 00:26:21;;;;;;;7.35;3.70;;;;;;;16.53;75.63;96866.31;5054195;28;20198;-70
2022/06/17 00:28:48;;;;;;;8.32;4.20;;;;;;;16.52;76.01;96866.47;5053469;28;20194;-69
2022/06/17 00:31:15;;;;;;;5.57;3.75;;;;;;;16.45;76.25;96857.66;5050436;28;20732;-68
2022/06/17 00:33:41;;;;;;;7.13;3.80;;;;;;;16.50;76.29;96860.53;5051956;28;20201;-67
2022/06/17 00:36:14;;;;;;;9.23;3.90;;;;;;;16.46;75.37;96856.66;5051127;28;20201;-68
2022/06/17 00:38:41;;;;;;;7.82;4.10;;;;;;;16.37;75.94;96863.16;5048538;28;20204;-70
2022/06/17 00:41:15;;;;;;;6.45;4.07;;;;;;;16.70;75.45;96869.41;5048434;28;20200;-70
2022/06/17 00:43:42;;;;;;;8.82;4.07;;;;;;;16.55;75.90;96860.78;5047917;28;20201;-70
2022/06/17 00:46:19;;;;;;;8.55;4.35;;;;;;;16.57;75.84;96861.38;5050104;28;20291;-70
2022/06/17 00:48:53;;;;;;;6.60;3.63;;;;;;;16.50;75.96;96869.34;5052535;28;20252;-70
2022/06/17 00:51:24;;;;;;;8.35;4.05;;;;;;;16.60;75.71;96882.28;5048440;28;20224;-70
2022/06/17 00:53:55;;;;;;;12.00;3.85;;;;;;;16.55;76.21;96871.41;5048507;28;20212;-69
2022/06/17 00:56:25;;;;;;;7.47;4.05;;;;;;;16.52;76.43;96871.78;5049329;28;20207;-70
2022/06/17 00:58:58;;;;;;;7.47;4.20;;;;;;;16.68;75.63;96871.47;5048882;28;20539;-69
2022/06/17 01:01:26;;;;;;;5.60;3.88;;;;;;;16.34;76.43;96874.16;5064896;22;20205;-73
2022/06/17 01:03:56;;;;;;;7.00;4.30;;;;;;;16.39;76.84;96871.72;5047246;28;20217;-73
2022/06/17 01:06:28;;;;;;;7.45;4.20;;;;;;;16.30;77.75;96874.78;5047464;28;20212;-72
2022/06/17 01:11:44;;;;;;;7.68;3.80;;;;;;;16.25;77.20;96880.63;5047623;28;20240;-73
2022/06/17 01:14:15;;;;;;;5.53;3.97;;;;;;;16.29;77.70;96876.59;5047646;28;20576;-73
2022/06/17 01:16:44;;;;;;;6.22;3.80;;;;;;;15.85;78.58;96889.38;5047966;28;20574;-72
2022/06/17 01:19:22;;;;;;;6.82;4.00;;;;;;;16.11;77.74;96886.88;5047685;28;20205;-72
2022/06/17 01:21:57;;;;;;;6.22;3.80;;;;;;;16.17;78.04;96888.78;5047905;28;20221;-72
2022/06/17 01:24:25;;;;;;;7.38;4.53;;;;;;;15.71;80.22;96891.31;5047678;28;20197;-72
2022/06/17 01:26:52;;;;;;;10.93;4.18;;;;;;;15.83;79.81;96887.91;5047928;28;20206;-72
2022/06/17 01:29:18;;;;;;;6.13;3.83;;;;;;;15.68;80.22;96886.38;5049473;28;20209;-73
2022/06/17 01:31:48;;;;;;;5.57;4.00;;;;;;;15.44;81.02;96892.09;5051244;28;20240;-72
2022/06/17 01:34:15;;;;;;;6.95;3.90;;;;;;;15.66;79.35;96886.56;5051438;28;20212;-73
2022/06/17 01:36:43;;;;;;;5.45;3.88;;;;;;;15.71;79.38;96889.47;5051199;28;20201;-72
2022/06/17 01:39:11;;;;;;;6.85;4.10;;;;;;;15.84;78.99;96889.56;5051569;28;20213;-73
2022/06/17 01:41:40;;;;;;;6.53;3.80;;;;;;;15.55;80.44;96892.41;5051154;28;20229;-73
2022/06/17 01:44:12;;;;;;;6.82;4.10;;;;;;;15.77;80.39;96879.91;5050807;28;20208;-72
2022/06/17 01:46:41;;;;;;;5.47;4.00;;;;;;;15.73;79.89;96870.69;5051193;28;20216;-73
2022/06/17 01:49:10;;;;;;;8.00;4.13;;;;;;;15.60;79.24;96863.41;5051198;28;20696;-73
2022/06/17 01:51:52;;;;;;;5.05;3.92;;;;;;;15.39;79.74;96868.78;5050944;28;20221;-72
2022/06/17 01:54:24;;;;;;;10.05;4.68;;;;;;;15.62;79.21;96857.94;5050846;28;20224;-72
2022/06/17 01:56:54;;;;;;;6.25;3.78;;;;;;;15.73;78.69;96857.38;5050925;28;20205;-72
2022/06/17 01:59:25;;;;;;;8.18;3.80;;;;;;;15.45;79.52;96867.19;5051274;28;20213;-72
2022/06/17 02:01:58;;;;;;;6.97;4.18;;;;;;;15.49;79.85;96877.25;5050664;28;20252;-72
2022/06/17 02:04:29;;;;;;;7.93;4.13;;;;;;;15.58;79.68;96875.25;5050752;28;20205;-72
2022/06/17 02:06:59;;;;;;;5.13;4.15;;;;;;;15.39;80.36;96874.09;5050751;28;20546;-72
2022/06/17 02:09:26;;;;;;;8.88;4.20;;;;;;;15.27;80.16;96877.44;5051122;28;20201;-72
2022/06/17 02:11:55;;;;;;;7.95;4.10;;;;;;;15.03;81.39;96869.84;5050821;28;20217;-72
2022/06/17 02:14:22;;;;;;;6.90;3.90;;;;;;;15.20;80.27;96865.06;5050384;28;20579;-72
2022/06/17 02:16:53;;;;;;;6.28;3.55;;;;;;;15.34;79.25;96849.13;5050572;28;20208;-72
2022/06/17 02:19:23;;;;;;;5.53;4.07;;;;;;;15.21;78.83;96848.16;5050341;28;20209;-72
2022/06/17 02:21:51;;;;;;;5.15;3.97;;;;;;;15.35;78.82;96834.81;5050010;28;20320;-72
2022/06/17 02:24:20;;;;;;;7.45;4.65;;;;;;;15.29;79.07;96840.91;5049801;28;20663;-72
2022/06/17 02:26:48;;;;;;;6.03;3.67;;;;;;;14.98;80.35;96837.72;5050536;28;20201;-72
2022/06/17 02:29:18;;;;;;;7.22;4.00;;;;;;;15.26;79.23;96822.69;5049433;28;20209;-72
2022/06/17 02:31:45;;;;;;;6.15;4.28;;;;;;;14.96;79.65;96834.44;5050202;28;20247;-72
2022/06/17 02:34:15;;;;;;;13.57;4.38;;;;;;;15.18;79.09;96837.91;5050012;28;20205;-72
2022/06/17 02:36:49;;;;;;;6.05;3.97;;;;;;;15.24;78.46;96836.16;5050400;28;20216;-72
2022/06/17 02:39:17;;;;;;;9.45;4.30;;;;;;;14.72;79.97;96842.75;5049740;28;20200;-72
2022/06/17 02:41:45;;;;;;;9.45;4.30;;;;;;;14.83;80.68;96836.16;5049993;28;20229;-73
2022/06/17 02:44:19;;;;;;;5.72;3.90;;;;;;;14.83;79.90;96841.44;5049587;28;20212;-73
2022/06/17 02:46:47;;;;;;;5.32;3.88;;;;;;;14.56;80.11;96846.63;5049905;28;20205;-72
2022/06/17 02:49:17;;;;;;;7.05;3.97;;;;;;;14.58;80.70;96852.59;5049754;28;20216;-72
2022/06/17 02:51:45;;;;;;;5.65;3.75;;;;;;;14.52;81.53;96853.31;5050064;28;20221;-72
2022/06/17 02:54:16;;;;;;;5.88;4.22;;;;;;;14.70;81.28;96851.91;5049549;28;20594;-72
2022/06/17 02:56:48;;;;;;;6.25;4.15;;;;;;;14.67;81.75;96852.28;5050125;28;20271;-72
2022/06/17 02:59:21;;;;;;;5.95;3.90;;;;;;;14.82;79.70;96843.25;5049625;28;20209;-72
2022/06/17 03:01:51;;;;;;;6.82;4.10;;;;;;;14.90;79.18;96844.97;5049737;28;20243;-72
2022/06/17 03:04:20;;;;;;;5.07;3.85;;;;;;;14.87;78.96;96843.53;5049173;28;20205;-73
2022/06/17 03:06:49;;;;;;;7.53;3.72;;;;;;;14.97;79.44;96840.53;5049924;28;20216;-72
2022/06/17 03:09:20;;;;;;;5.00;3.90;;;;;;;14.52;79.76;96837.41;5049733;28;20209;-72
2022/06/17 03:11:52;;;;;;;6.85;3.80;;;;;;;14.76;79.45;96833.38;5049567;28;20231;-72
2022/06/17 03:14:22;;;;;;;6.88;4.28;;;;;;;14.71;79.56;96838.47;5049254;28;20296;-72
2022/06/17 03:16:53;;;;;;;5.35;3.95;;;;;;;14.79;80.18;96838.34;5049648;28;20208;-72
2022/06/17 03:19:20;;;;;;;8.02;4.85;;;;;;;14.65;82.70;96841.84;5049529;28;20209;-72
2022/06/17 03:21:46;;;;;;;10.40;4.97;;;;;;;14.76;81.80;96833.38;5049318;28;20263;-72
2022/06/17 03:24:21;;;;;;;7.95;4.80;;;;;;;14.79;81.04;96840.16;5048788;28;20216;-72
2022/06/17 03:26:54;;;;;;;5.20;3.70;;;;;;;14.84;80.20;96848.38;5049540;28;20207;-72
2022/06/17 03:29:23;;;;;;;9.48;4.45;;;;;;;14.95;79.28;96851.34;5048540;28;20201;-72
2022/06/17 03:31:55;;;;;;;5.78;4.00;;;;;;;14.48;80.93;96862.66;5048741;28;20221;-72
2022/06/17 03:34:25;;;;;;;6.18;3.97;;;;;;;14.52;80.72;96866.59;5048859;28;20213;-72
2022/06/17 03:36:55;;;;;;;6.95;3.88;;;;;;;14.24;81.81;96870.91;5048835;28;20201;-72
2022/06/17 03:39:25;;;;;;;7.70;4.25;;;;;;;14.39;81.29;96871.72;5048983;28;20217;-72
2022/06/17 03:41:55;;;;;;;6.82;4.05;;;;;;;14.51;81.50;96878.19;5048902;28;20240;-72
2022/06/17 03:44:29;;;;;;;6.80;4.20;;;;;;;14.54;80.32;96877.84;5048699;28;20209;-72
2022/06/17 03:47:03;;;;;;;7.65;4.32;;;;;;;14.42;81.61;96885.44;5048704;28;20209;-72
2022/06/17 03:49:38;;;;;;;8.00;4.70;;;;;;;14.59;81.41;96894.84;5048924;28;20259;-72
2022/06/17 03:52:15;;;;;;;5.68;4.20;;;;;;;14.63;81.14;96888.16;5047978;28;20235;-72
2022/06/17 03:54:41;;;;;;;5.72;4.32;;;;;;;14.55;81.30;96890.06;5048705;28;20212;-72
2022/06/17 03:57:10;;;;;;;8.00;4.13;;;;;;;14.64;80.76;96893.25;5049073;28;20201;-72
2022/06/17 03:59:42;;;;;;;9.77;4.50;;;;;;;14.76;81.09;96893.59;5048603;28;20208;-72
2022/06/17 04:02:11;;;;;;;8.68;4.53;;;;;;;14.67;81.62;96900.03;5048143;28;20229;-72
2022/06/17 04:04:41;;;;;;;11.00;4.70;;;;;;;14.81;81.17;96902.63;5048084;28;20205;-73
2022/06/17 04:07:11;;;;;;;7.40;4.43;;;;;;;15.17;80.73;96900.78;5048973;28;20208;-72
2022/06/17 04:09:40;;;;;;;8.00;4.70;;;;;;;14.89;81.45;96902.56;5048297;28;20209;-72
2022/06/17 04:12:25;;;;;;;6.10;4.28;;;;;;;15.39;80.34;96897.19;5048360;28;20235;-72
2022/06/17 04:14:58;;;;;;;6.30;3.92;;;;;;;15.22;81.02;96897.59;5048618;28;20205;-73
2022/06/17 04:17:31;;;;;;;6.82;4.15;;;;;;;15.33;81.30;96900.59;5048358;28;20205;-72
2022/06/17 04:20:21;;;;;;;9.10;4.78;;;;;;;15.26;82.17;96903.19;5048227;28;20197;-75
2022/06/17 04:22:50;;;;;;;6.78;4.35;;;;;;;15.43;82.61;96907.22;5047472;28;20613;-74
2022/06/17 04:25:22;;;;;;;6.85;4.70;;;;;;;15.52;83.40;96902.59;5048468;28;20205;-73
2022/06/17 04:27:58;;;;;;;8.77;4.93;;;;;;;15.67;82.44;96906.81;5048237;28;20665;-73
2022/06/17 04:30:30;;;;;;;6.70;4.65;;;;;;;15.58;84.44;96909.78;5047701;28;20204;-73
2022/06/17 04:33:01;;;;;;;7.18;4.65;;;;;;;15.65;85.46;96910.69;5047855;28;20229;-73
2022/06/17 04:35:28;;;;;;;7.00;4.65;;;;;;;15.71;85.05;96909.94;5048244;28;20664;-73
2022/06/17 04:37:55;;;;;;;7.55;4.60;;;;;;;15.73;85.30;96921.16;5048573;28;20216;-73
2022/06/17 04:40:30;;;;;;;9.13;5.03;;;;;;;16.04;84.84;96920.59;5048255;28;20201;-73
2022/06/17 04:42:59;;;;;;;10.07;5.03;;;;;;;16.26;83.94;96924.88;5047739;28;20220;-74
2022/06/17 04:45:29;;;;;;;15.32;6.85;;;;;;;16.47;82.05;96927.47;5048016;28;20197;-76
2022/06/17 04:47:57;;;;;;;8.07;5.47;;;;;;;16.68;80.89;96928.16;5048401;28;20228;-74
2022/06/17 04:50:26;;;;;;;10.40;5.75;;;;;;;16.89;79.43;96932.56;5048299;28;20205;-74
2022/06/17 04:52:54;;;;;;;10.05;5.63;;;;;;;16.87;79.64;96929.28;5047567;28;20218;-74
2022/06/17 04:55:25;;;;;;;8.70;5.68;;;;;;;17.24;78.93;96935.78;5048302;28;20209;-74
2022/06/17 04:57:51;;;;;;;12.27;5.85;;;;;;;17.18;79.69;96939.22;5047810;28;20201;-74
2022/06/17 05:00:20;;;;;;;12.15;5.60;;;;;;;17.46;78.12;96942.59;5048476;28;20201;-74
2022/06/17 05:02:49;;;;;;;15.05;5.47;;;;;;;17.54;77.72;96939.75;5049786;28;20236;-72
2022/06/17 05:05:25;;;;;;;7.60;5.45;;;;;;;17.47;77.39;96938.09;5052311;28;20252;-73
2022/06/17 05:07:54;;;;;;;9.48;4.82;;;;;;;17.51;76.52;96945.47;5051798;28;20209;-73
2022/06/17 05:10:25;;;;;;;9.55;5.75;;;;;;;17.64;76.99;96948.16;5051827;28;20205;-72
2022/06/17 05:12:57;;;;;;;8.65;5.05;;;;;;;17.71;76.77;96956.19;5051349;28;20228;-73
2022/06/17 05:15:24;;;;;;;10.00;5.35;;;;;;;17.70;76.56;96955.34;5052217;28;20209;-74
2022/06/17 05:17:54;;;;;;;9.75;5.88;;;;;;;17.89;77.29;96952.69;5051722;28;20245;-73
2022/06/17 05:20:22;;;;;;;10.27;5.25;;;;;;;17.82;78.52;96959.06;5051855;28;20291;-74
2022/06/17 05:22:51;;;;;;;10.68;5.28;;;;;;;17.83;76.56;96960.69;5051089;28;20233;-75
2022/06/17 05:25:20;;;;;;;8.80;5.35;;;;;;;17.99;76.19;96965.63;5051934;28;20217;-74
2022/06/17 05:27:47;;;;;;;8.23;5.20;;;;;;;17.95;72.70;96970.53;5051467;28;20198;-74
2022/06/17 05:30:14;;;;;;;8.73;4.53;;;;;;;18.10;73.67;96967.66;5050673;28;20208;-73
2022/06/17 05:32:44;;;;;;;7.25;4.85;;;;;;;18.26;70.97;96967.28;5050955;28;20598;-73
2022/06/17 05:35:11;;;;;;;9.05;4.82;;;;;;;18.30;73.27;96958.66;5051447;28;20212;-73
2022/06/17 05:37:38;;;;;;;8.40;3.97;;;;;;;18.46;72.57;96964.38;5052183;28;20212;-73
2022/06/17 05:40:08;;;;;;;6.30;4.55;;;;;;;18.87;71.47;96966.75;5051924;28;20201;-73
2022/06/17 05:42:35;;;;;;;7.10;4.68;;;;;;;18.88;69.34;96969.22;5051152;28;20237;-73
2022/06/17 05:45:01;;;;;;;10.32;5.35;;;;;;;18.84;69.83;96977.84;5052320;28;20220;-73
2022/06/17 05:47:28;;;;;;;8.27;5.15;;;;;;;18.73;69.87;96978.50;5051844;28;20201;-73
2022/06/17 05:49:54;;;;;;;7.45;4.47;;;;;;;18.64;69.41;96988.59;5051582;28;20205;-73
2022/06/17 05:52:22;;;;;;;9.10;4.90;;;;;;;19.02;70.18;96986.84;5051676;28;20228;-73
2022/06/17 05:54:49;;;;;;;6.82;4.25;;;;;;;18.89;69.16;96988.72;5052232;28;20216;-73
2022/06/17 05:57:16;;;;;;;7.40;4.25;;;;;;;18.94;68.51;96990.56;5052141;28;20204;-73
2022/06/17 05:59:42;;;;;;;7.55;4.30;;;;;;;19.06;69.78;96996.91;5051753;28;20208;-73
2022/06/17 06:02:12;;;;;;;6.40;4.20;;;;;;;19.38;68.85;96998.63;5051709;28;20316;-73
2022/06/17 06:04:38;;;;;;;5.45;3.53;;;;;;;19.51;63.82;96995.09;5051033;28;20720;-73
2022/06/17 06:07:05;;;;;;;6.45;3.47;;;;;;;19.48;63.33;97000.88;5051977;28;20205;-73
2022/06/17 06:09:33;;;;;;;4.47;2.90;;;;;;;19.72;63.30;97001.75;5050823;28;20224;-73
2022/06/17 06:11:59;;;;;;;4.88;2.75;;;;;;;19.78;62.36;97010.75;5051656;28;20312;-72
2022/06/17 06:14:26;;;;;;;5.03;3.30;;;;;;;19.44;62.89;97008.47;5050436;28;20202;-73
2022/06/17 06:16:52;;;;;;;5.38;3.10;;;;;;;20.04;63.13;97016.78;5050691;28;20201;-73
2022/06/17 06:19:18;;;;;;;4.70;2.85;;;;;;;20.33;61.83;97016.19;5050716;28;20213;-73
2022/06/17 06:21:45;;;;;;;4.10;2.83;;;;;;;20.13;61.12;97020.84;5050617;28;20240;-73
2022/06/17 06:24:12;;;;;;;5.75;2.53;;;;;;;20.25;61.74;97021.78;5050207;28;20209;-73
2022/06/17 06:26:40;;;;;;;4.20;2.67;;;;;;;20.39;61.29;97020.63;5050278;28;20212;-73
2022/06/17 06:29:07;;;;;;;4.50;3.00;;;;;;;20.60;59.49;97026.44;5049509;28;20231;-72
2022/06/17 06:31:35;;;;;;;5.15;2.97;;;;;;;20.66;59.34;97022.03;5050333;28;20225;-72
2022/06/17 06:34:02;;;;;;;6.03;3.03;;;;;;;20.63;59.15;97033.19;5050045;28;20216;-73
2022/06/17 06:36:29;;;;;;;3.65;2.78;;;;;;;20.98;59.18;97027.13;5050525;28;20209;-73
2022/06/17 06:38:55;;;;;;;4.18;2.80;;;;;;;21.01;57.07;97040.06;5050272;28;20208;-74
2022/06/17 06:41:22;;;;;;;5.60;2.80;;;;;;;21.04;57.52;97037.78;5050643;28;20205;-73
2022/06/17 06:43:51;;;;;;;5.30;3.20;;;;;;;20.96;58.24;97038.06;5049831;28;20232;-73
2022/06/17 06:46:19;;;;;;;5.18;3.13;;;;;;;21.00;58.02;97039.25;5050295;28;20250;-73
2022/06/17 06:48:47;;;;;;;6.55;3.13;;;;;;;21.04;57.03;97031.56;5050281;28;20216;-74
2022/06/17 06:51:13;;;;;;;3.90;2.97;;;;;;;20.90;61.02;97033.59;5049858;28;20542;-73
2022/06/17 06:53:40;;;;;;;7.28;3.45;;;;;;;21.15;57.00;97028.97;5047808;28;20884;-73
2022/06/17 06:56:06;;;;;;;10.38;3.33;;;;;;;21.52;58.37;97025.28;5049586;28;20575;-73
2022/06/17 06:58:33;;;;;;;8.80;3.22;;;;;;;21.43;58.13;97031.94;5049988;28;20220;-74
2022/06/17 07:01:01;;;;;;;3.83;2.78;;;;;;;21.72;56.72;97026.66;5050039;28;20292;-74
2022/06/17 07:05:59;;;;;;;4.80;3.00;;;;;;;21.84;56.25;97027.53;4996573;28;20236;-66
2022/06/17 07:08:28;;;;;;;6.05;3.20;;;;;;;21.82;56.33;97028.81;4999167;28;20203;-66
2022/06/17 07:10:56;;;;;;;6.70;2.97;;;;;;;21.92;55.13;97021.00;5002514;28;20203;-66
2022/06/17 07:13:23;;;;;;;8.30;3.25;;;;;;;21.65;58.56;97031.28;4999081;28;20234;-66
2022/06/17 07:15:50;;;;;;;7.25;2.90;;;;;;;21.44;58.00;97028.22;5002821;28;20210;-66
2022/06/17 07:18:21;;;;;;;7.28;3.05;;;;;;;21.99;57.14;97027.91;4997303;28;20615;-67
2022/06/17 07:20:50;;;;;;;7.70;3.10;;;;;;;22.12;54.67;97028.56;5000347;28;20198;-66
2022/06/17 07:23:19;;;;;;;6.32;3.00;;;;;;;22.27;53.32;97028.16;4999193;28;20641;-66
2022/06/17 07:25:46;;;;;;;10.85;3.00;;;;;;;22.27;54.10;97039.69;4997235;28;20697;-66
2022/06/17 07:28:14;;;;;;;3.78;3.00;;;;;;;21.94;53.63;97037.72;5001329;28;20206;-66
2022/06/17 07:30:40;;;;;;;9.57;3.10;;;;;;;22.07;55.17;97041.00;4996655;28;20269;-66
2022/06/17 07:33:07;;;;;;;4.65;3.25;;;;;;;22.28;54.21;97032.47;4998239;28;20227;-66
2022/06/17 07:35:35;;;;;;;4.78;3.05;;;;;;;22.17;55.30;97039.44;5002169;28;20211;-67
2022/06/17 07:40:48;;;;;;;4.30;2.63;;;;;;;22.63;54.04;97036.03;4999624;28;20217;-66
2022/06/17 07:43:16;;;;;;;4.60;2.80;;;;;;;22.87;52.66;97028.56;5003469;28;20236;-66
2022/06/17 07:45:44;;;;;;;7.95;2.80;;;;;;;22.73;53.33;97037.09;5000811;28;20577;-66
2022/06/17 07:48:12;;;;;;;6.32;2.97;;;;;;;22.76;52.21;97032.06;4998739;28;20214;-66
2022/06/17 07:50:43;;;;;;;8.43;3.38;;;;;;;22.46;52.34;97040.47;4999404;28;20239;-66
2022/06/17 07:53:10;;;;;;;5.57;3.35;;;;;;;22.31;53.21;97032.00;5008887;28;20225;-68
2022/06/17 07:55:37;;;;;;;5.13;2.80;;;;;;;22.54;55.27;97042.78;5008995;28;20213;-68
2022/06/17 07:58:04;;;;;;;4.57;3.03;;;;;;;22.84;51.05;97033.59;5009035;28;20202;-68
2022/06/17 08:00:35;;;;;;;5.43;3.20;;;;;;;23.15;51.31;97036.75;5008914;28;20214;-68
2022/06/17 08:03:01;;;;;;;5.18;3.42;;;;;;;23.07;50.55;97033.63;5003889;28;20245;-68
2022/06/17 08:05:28;;;;;;;4.13;2.92;;;;;;;23.06;53.23;97031.97;5005834;28;20224;-68
2022/06/17 08:07:56;;;;;;;5.75;2.80;;;;;;;23.49;52.54;97042.06;5008250;28;20210;-68
2022/06/17 08:10:26;;;;;;;6.30;2.97;;;;;;;23.71;49.49;97044.97;5008770;28;20202;-68
2022/06/17 08:12:53;;;;;;;6.82;2.92;;;;;;;23.44;49.32;97041.97;5008183;28;20253;-68
2022/06/17 08:15:20;;;;;;;5.60;2.83;;;;;;;23.71;50.30;97043.09;5008309;28;20210;-68
2022/06/17 08:17:46;;;;;;;3.85;2.65;;;;;;;23.68;51.39;97040.06;5008088;28;20218;-68
2022/06/17 08:20:16;;;;;;;6.05;3.28;;;;;;;23.63;50.01;97037.25;5008857;28;20210;-68
2022/06/17 08:22:43;;;;;;;6.22;3.20;;;;;;;23.61;48.85;97036.66;5008225;28;20604;-68
2022/06/17 08:25:12;;;;;;;6.88;3.03;;;;;;;23.67;49.36;97033.81;5008650;28;20206;-68
2022/06/17 08:27:42;;;;;;;6.10;3.40;;;;;;;23.98;49.02;97033.38;5008448;28;20210;-68
2022/06/17 08:30:09;;;;;;;3.72;2.83;;;;;;;24.06;50.30;97036.53;5005631;28;20213;-68
2022/06/17 08:32:48;;;;;;;7.15;3.30;;;;;;;23.99;49.27;97035.03;5004826;28;20226;-68
2022/06/17 08:35:16;;;;;;;4.00;3.08;;;;;;;24.03;49.57;97045.09;4999644;28;20210;-68
2022/06/17 08:37:43;;;;;;;4.93;3.00;;;;;;;24.22;48.84;97034.91;5004847;28;20209;-68
2022/06/17 08:40:26;;;;;;;3.97;3.03;;;;;;;24.26;47.72;97041.44;5004756;28;20202;-68
2022/06/17 08:43:05;;;;;;;6.25;2.97;;;;;;;24.09;47.24;97040.59;5007430;28;20230;-68
2022/06/17 08:45:43;;;;;;;7.32;3.20;;;;;;;24.27;46.86;97037.69;5008545;28;21233;-68
2022/06/17 08:48:20;;;;;;;5.25;2.92;;;;;;;24.30;46.42;97034.50;5000824;28;20209;-68
2022/06/17 08:51:01;;;;;;;3.20;2.35;;;;;;;24.67;47.59;97044.63;5008342;28;20202;-68
2022/06/17 08:54:10;;;;;;;3.63;2.17;;;;;;;24.61;45.66;97046.41;4999946;28;20222;-69
2022/06/17 08:56:47;;;;;;;3.28;2.42;;;;;;;24.67;41.26;97044.63;5006913;28;20199;-69
2022/06/17 08:59:29;;;;;;;3.22;2.25;;;;;;;24.65;44.95;97052.94;5003586;28;20225;-68
2022/06/17 09:02:05;;;;;;;2.83;2.38;;;;;;;24.63;45.22;97055.09;5006636;28;20230;-70
2022/06/17 09:04:51;;;;;;;2.60;1.63;;;;;;;24.58;40.57;97056.91;5006722;28;20226;-70
2022/06/17 09:07:25;;;;;;;4.82;2.00;;;;;;;24.56;42.20;97057.09;5001207;28;20213;-70
2022/06/17 09:10:07;;;;;;;3.17;2.25;;;;;;;24.79;42.28;97048.06;5008023;28;20202;-70
2022/06/17 09:12:48;;;;;;;5.78;2.50;;;;;;;24.68;43.81;97047.09;5007553;28;20226;-70
2022/06/17 09:15:23;;;;;;;3.60;2.08;;;;;;;24.90;44.35;97044.47;5008160;28;20213;-70
2022/06/17 09:17:58;;;;;;;2.95;2.00;;;;;;;24.86;42.25;97048.69;5007904;28;20210;-70
2022/06/17 09:20:31;;;;;;;3.58;1.75;;;;;;;24.90;40.54;97050.66;5008214;28;20203;-70
2022/06/17 09:23:01;;;;;;;6.05;2.25;;;;;;;25.20;42.58;97051.13;5000813;28;20230;-70
2022/06/17 09:25:35;;;;;;;4.80;2.15;;;;;;;25.08;41.52;97047.75;5007534;28;20666;-70
2022/06/17 09:28:07;;;;;;;6.95;2.17;;;;;;;24.92;41.15;97048.53;5007815;28;20203;-70
2022/06/17 09:30:39;;;;;;;3.83;2.25;;;;;;;25.14;44.19;97038.66;5006540;28;20571;-70
2022/06/17 09:33:10;;;;;;;6.03;2.15;;;;;;;24.98;39.95;97036.75;5003979;28;20227;-70
2022/06/17 09:35:41;;;;;;;5.75;2.38;;;;;;;24.97;43.48;97029.72;5007426;28;20210;-71
2022/06/17 09:38:12;;;;;;;3.50;2.38;;;;;;;25.43;42.19;97026.63;5007654;28;20210;-71
2022/06/17 09:40:42;;;;;;;3.30;2.17;;;;;;;25.78;42.22;97032.53;5007527;28;20203;-71
2022/06/17 09:43:16;;;;;;;8.90;2.20;;;;;;;25.93;41.53;97028.91;5007022;28;20574;-71
2022/06/17 09:45:47;;;;;;;5.70;2.20;;;;;;;26.05;43.12;97028.78;5007213;28;20216;-70
2022/06/17 09:48:18;;;;;;;7.00;2.88;;;;;;;25.80;42.07;97027.66;5007824;28;20221;-70
2022/06/17 09:50:49;;;;;;;3.17;2.05;;;;;;;25.54;41.83;97036.50;5010882;28;20211;-71
2022/06/17 09:53:22;;;;;;;4.75;2.25;;;;;;;25.79;41.60;97044.94;5010527;28;20726;-71
2022/06/17 09:55:53;;;;;;;4.43;1.90;;;;;;;25.86;36.58;97043.69;5011004;28;20195;-71
2022/06/17 09:58:25;;;;;;;3.90;2.30;;;;;;;26.05;40.63;97053.09;5011198;28;20242;-71
2022/06/17 10:00:54;;;;;;;2.78;1.73;;;;;;;26.32;40.40;97049.31;5011277;28;20260;-71
2022/06/17 10:03:24;;;;;;;3.28;2.00;;;;;;;26.50;38.85;97048.97;5010471;28;20230;-71
2022/06/17 10:06:01;;;;;;;3.22;1.83;;;;;;;26.47;40.60;97052.19;5003162;28;20214;-71
2022/06/17 10:08:39;;;;;;;4.35;2.33;;;;;;;26.12;41.26;97050.97;5010540;28;21028;-71
2022/06/17 10:11:13;;;;;;;8.10;2.42;;;;;;;26.03;43.18;97056.03;5010882;28;20206;-71
2022/06/17 10:13:53;;;;;;;4.28;1.92;;;;;;;26.08;42.94;97056.09;4999460;28;20220;-70
2022/06/17 10:19:26;;;;;;;3.40;2.30;;;;;;;26.42;40.22;97060.25;4998188;28;20216;-70
2022/06/17 10:22:04;;;;;;;4.82;2.45;;;;;;;26.86;41.18;97054.44;5006456;28;20206;-71
2022/06/17 10:24:41;;;;;;;7.35;2.38;;;;;;;26.94;41.50;97055.84;5010210;28;20233;-71
2022/06/17 10:27:23;;;;;;;5.57;2.30;;;;;;;26.16;40.46;97044.03;5003075;28;20214;-70
2022/06/17 10:30:02;;;;;;;2.90;2.10;;;;;;;26.53;40.09;97040.38;5007399;28;20214;-70
2022/06/17 10:32:30;;;;;;;4.22;2.00;;;;;;;26.77;39.44;97045.16;5009938;28;20234;-71
2022/06/17 10:34:59;;;;;;;2.20;1.92;;;;;;;26.86;37.89;97048.19;5010260;28;20655;-71
2022/06/17 10:37:27;;;;;;;3.80;2.10;;;;;;;26.74;37.80;97047.56;5005609;28;20208;-71
2022/06/17 10:39:56;;;;;;;4.18;2.28;;;;;;;26.62;38.71;97052.34;5010374;28;20207;-71
2022/06/17 10:42:25;;;;;;;4.38;2.20;;;;;;;26.92;39.89;97044.47;5009753;28;20226;-72
2022/06/17 10:44:54;;;;;;;5.07;2.30;;;;;;;26.94;38.81;97039.63;5004893;28;20237;-71
2022/06/17 10:47:32;;;;;;;2.92;2.30;;;;;;;26.95;37.11;97027.69;5002696;28;20570;-72
2022/06/17 10:50:02;;;;;;;4.05;2.03;;;;;;;27.20;38.43;97028.72;5009987;28;20226;-73
2022/06/17 10:52:33;;;;;;;4.57;2.28;;;;;;;27.33;38.99;97026.38;5009683;28;20223;-72
2022/06/17 10:55:02;;;;;;;4.82;1.90;;;;;;;27.69;41.10;97022.78;5003509;28;20229;-70
2022/06/17 10:57:31;;;;;;;4.82;2.70;;;;;;;27.93;39.14;97023.97;5007378;28;20229;-70
2022/06/17 10:59:59;;;;;;;4.75;2.30;;;;;;;28.12;38.08;97016.94;5003173;28;20202;-70
2022/06/17 11:02:30;;;;;;;3.85;2.20;;;;;;;28.23;37.34;97005.09;5009201;28;20598;-70
2022/06/17 11:04:59;;;;;;;8.55;2.05;;;;;;;27.96;41.20;97009.88;4997681;28;20226;-72
2022/06/17 11:07:30;;;;;;;4.82;2.25;;;;;;;28.19;36.99;97012.94;5003461;28;20198;-72
2022/06/17 11:10:00;;;;;;;4.25;2.13;;;;;;;27.57;39.33;97003.25;5002264;28;20213;-72
2022/06/17 11:12:35;;;;;;;4.55;2.17;;;;;;;28.44;38.96;97002.94;5007082;28;20230;-72
2022/06/17 11:15:18;;;;;;;2.85;2.25;;;;;;;27.83;34.88;97004.97;5002049;28;20210;-72
2022/06/17 11:17:47;;;;;;;3.13;2.15;;;;;;;27.79;36.11;97001.16;5009678;28;20214;-72
2022/06/17 11:20:23;;;;;;;2.72;2.20;;;;;;;28.35;37.11;97001.84;5009536;28;20209;-72
2022/06/17 11:22:52;;;;;;;5.80;2.20;;;;;;;28.17;37.55;97011.56;5006757;28;20706;-72
2022/06/17 11:25:26;;;;;;;4.78;2.17;;;;;;;28.40;38.27;96998.34;5005119;28;20233;-72
2022/06/17 11:27:56;;;;;;;3.50;2.05;;;;;;;28.86;36.26;97002.69;5009296;28;20207;-73
2022/06/17 11:30:30;;;;;;;5.47;2.63;;;;;;;28.57;38.91;97005.09;5009282;28;20198;-73
2022/06/17 11:32:58;;;;;;;4.10;2.15;;;;;;;29.23;37.51;97001.28;5004716;28;20285;-73
2022/06/17 11:35:37;;;;;;;2.35;2.00;;;;;;;28.55;37.39;97004.59;5005749;28;20246;-73
2022/06/17 11:38:06;;;;;;;2.78;2.10;;;;;;;28.61;39.84;97002.69;5007967;28;20206;-73
2022/06/17 11:40:35;;;;;;;4.18;1.95;;;;;;;29.21;39.01;96995.31;5006814;28;20333;-73
2022/06/17 11:43:04;;;;;;;2.92;2.17;;;;;;;29.25;36.02;96986.34;5003648;28;20721;-73
2022/06/17 11:45:36;;;;;;;3.88;2.05;;;;;;;29.14;37.87;96992.06;5006995;28;20205;-73
2022/06/17 11:48:05;;;;;;;6.97;2.08;;;;;;;28.41;35.43;96989.94;5008884;28;20269;-73
2022/06/17 11:50:36;;;;;;;4.03;2.10;;;;;;;28.62;35.78;96985.31;5006919;28;20213;-73
2022/06/17 11:53:07;;;;;;;3.53;2.28;;;;;;;28.44;34.49;96989.38;5008711;28;20276;-73
2022/06/17 11:55:42;;;;;;;2.80;2.08;;;;;;;28.42;38.94;96986.13;5009005;28;20710;-73
2022/06/17 11:58:10;;;;;;;2.75;1.70;;;;;;;28.39;38.39;96988.56;5009230;28;20301;-73